createdAt,value
2022-09-27T00:02:57.991Z,52.60
2022-09-27T00:07:57.513Z,52.71
2022-09-27T00:12:56.799Z,53.13
2022-09-27T00:17:57.071Z,53.49
2022-09-27T00:22:55.954Z,54.06
2022-09-27T00:27:54.821Z,53.34
2022-09-27T00:32:53.902Z,53.63
2022-09-27T00:37:54.187Z,53.49
2022-09-27T00:42:52.991Z,55.41
2022-09-27T00:47:56.308Z,53.92
2022-09-27T00:53:05.725Z,54.15
2022-09-27T00:58:06.364Z,53.79
2022-09-27T01:03:11.533Z,54.61
2022-09-27T01:08:11.710Z,54.80
2022-09-27T01:13:18.183Z,56.67
2022-09-27T01:18:32.412Z,57.20
2022-09-27T01:23:57.999Z,55.35
2022-09-27T01:29:02.526Z,55.56
2022-09-27T01:34:07.437Z,55.40
2022-09-27T01:39:20.433Z,55.60
2022-09-27T01:44:52.006Z,55.55
2022-09-27T01:50:02.464Z,55.34
2022-09-27T01:55:08.147Z,55.33
2022-09-27T02:00:22.209Z,55.39
2022-09-27T02:05:25.111Z,55.54
2022-09-27T02:10:31.625Z,55.54
2022-09-27T02:15:43.434Z,55.55
2022-09-27T02:20:59.988Z,56.38
2022-09-27T02:26:01.383Z,56.53
2022-09-27T02:31:01.798Z,56.06
2022-09-27T02:36:07.450Z,56.06
2022-09-27T02:41:14.624Z,56.07
2022-09-27T02:46:29.659Z,56.33
2022-09-27T02:51:44.534Z,57.45
2022-09-27T02:56:52.814Z,56.90
2022-09-27T03:02:24.871Z,57.72
2022-09-27T03:07:44.451Z,57.45
2022-09-27T03:12:44.470Z,57.68
2022-09-27T03:17:43.672Z,57.62
2022-09-27T03:23:04.260Z,57.29
2022-09-27T03:28:03.623Z,57.14
2022-09-27T03:33:03.556Z,57.81
2022-09-27T03:38:29.760Z,57.44
2022-09-27T03:43:28.767Z,57.27
2022-09-27T03:48:31.511Z,57.97
2022-09-27T03:53:31.856Z,58.03
2022-09-27T03:58:30.997Z,58.06
2022-09-27T04:03:30.215Z,59.37
2022-09-27T04:09:02.795Z,60.27
2022-09-27T04:14:18.766Z,59.90
2022-09-27T04:19:38.211Z,59.58
2022-09-27T04:24:43.205Z,58.98
2022-09-27T04:30:00.155Z,58.72
2022-09-27T04:35:36.875Z,58.83
2022-09-27T04:40:42.223Z,59.12
2022-09-27T04:45:42.058Z,59.16
2022-09-27T04:50:41.455Z,59.20
2022-09-27T04:55:41.940Z,59.61
2022-09-27T05:00:42.386Z,62.19
2022-09-27T05:06:01.325Z,64.94
2022-09-27T05:11:01.620Z,63.86
2022-09-27T05:16:05.354Z,64.40
2022-09-27T05:21:33.239Z,63.54
2022-09-27T05:26:33.670Z,65.17
2022-09-27T05:31:32.591Z,64.60
2022-09-27T05:36:32.593Z,64.03
2022-09-27T05:41:32.960Z,63.06
2022-09-27T05:46:33.618Z,65.68
2022-09-27T05:51:33.119Z,63.98
2022-09-27T05:56:32.125Z,63.57
2022-09-27T06:01:58.420Z,63.38
2022-09-27T06:07:35.899Z,63.73
2022-09-27T06:12:38.616Z,64.94
2022-09-27T06:17:48.621Z,64.10
2022-09-27T06:22:54.218Z,62.84
2022-09-27T06:27:55.123Z,63.78
2022-09-27T06:33:00.589Z,63.82
2022-09-27T06:38:07.248Z,63.68
2022-09-27T06:43:08.537Z,63.16
2022-09-27T06:48:43.756Z,62.40
2022-09-27T06:53:47.076Z,61.56
2022-09-27T06:59:03.541Z,62.56
2022-09-27T07:04:24.087Z,65.53
2022-09-27T07:09:32.089Z,65.57
2022-09-27T07:14:30.926Z,64.46
2022-09-27T07:19:31.486Z,66.03
2022-09-27T07:24:30.579Z,64.41
2022-09-27T07:29:30.450Z,64.10
2022-09-27T07:34:34.762Z,64.24
2022-09-27T07:39:35.281Z,63.82
2022-09-27T07:44:34.604Z,63.38
2022-09-27T07:50:04.003Z,63.38
2022-09-27T07:55:25.791Z,62.27
2022-09-27T08:00:30.006Z,63.33
2022-09-27T08:05:30.369Z,63.23
2022-09-27T08:10:31.846Z,61.50
2022-09-27T08:15:33.114Z,61.24
2022-09-27T08:20:33.343Z,62.63
2022-09-27T08:25:59.464Z,65.44
2022-09-27T08:31:01.140Z,66.28
2022-09-27T08:36:01.924Z,64.77
2022-09-27T08:41:08.142Z,63.72
2022-09-27T08:46:24.614Z,64.15
2022-09-27T08:51:33.083Z,63.81
2022-09-27T08:56:33.377Z,64.20
2022-09-27T09:01:33.854Z,64.58
2022-09-27T09:06:50.768Z,64.70
2022-09-27T09:12:19.270Z,62.64
2022-09-27T09:17:31.994Z,62.73
2022-09-27T09:23:06.575Z,61.97
2022-09-27T09:28:22.261Z,62.61
2022-09-27T09:33:26.629Z,62.69
2022-09-27T09:38:35.811Z,61.25
2022-09-27T09:43:40.661Z,60.26
2022-09-27T09:48:46.987Z,59.52
2022-09-27T09:53:53.835Z,58.10
2022-09-27T09:59:02.414Z,57.14
2022-09-27T10:04:17.189Z,55.78
2022-09-27T10:09:24.030Z,55.36
2022-09-27T10:15:04.344Z,56.01
2022-09-27T10:20:04.861Z,55.51
2022-09-27T10:25:08.172Z,54.43
2022-09-27T10:30:28.966Z,54.49
2022-09-27T10:35:49.872Z,53.49
2022-09-27T10:41:23.331Z,52.87
2022-09-27T10:46:28.934Z,52.67
2022-09-27T10:51:39.875Z,51.87
2022-09-27T10:56:40.279Z,51.51
2022-09-27T11:01:46.069Z,51.45
2022-09-27T11:06:51.385Z,52.32
2022-09-27T11:11:52.250Z,52.76
2022-09-27T11:17:14.382Z,52.74
2022-09-27T11:22:44.937Z,52.90
2022-09-27T11:28:02.511Z,53.19
2022-09-27T11:33:26.061Z,52.19
2022-09-27T11:38:51.774Z,52.62
2022-09-27T11:44:02.849Z,52.78
2022-09-27T11:49:15.160Z,52.35
2022-09-27T11:54:31.873Z,52.88
2022-09-27T12:00:05.901Z,51.47
2022-09-27T12:05:31.390Z,51.44
2022-09-27T12:10:37.108Z,50.38
2022-09-27T12:15:40.979Z,50.52
2022-09-27T12:20:43.478Z,50.23
2022-09-27T12:25:47.004Z,49.50
2022-09-27T12:31:17.662Z,49.30
2022-09-27T12:36:24.638Z,49.36
2022-09-27T12:41:26.564Z,49.05
2022-09-27T12:46:58.715Z,50.42
2022-09-27T12:52:03.904Z,50.53
2022-09-27T12:57:13.622Z,51.33
2022-09-27T13:02:57.440Z,52.40
2022-09-27T13:08:19.761Z,52.24
2022-09-27T13:13:22.344Z,54.67
2022-09-27T13:18:32.108Z,55.36
2022-09-27T13:24:03.762Z,54.42
2022-09-27T13:29:39.560Z,55.11
2022-09-27T13:34:43.695Z,55.37
2022-09-27T13:40:11.821Z,54.13
2022-09-27T13:45:29.399Z,53.13
2022-09-27T13:50:47.496Z,53.25
2022-09-27T13:55:51.194Z,55.79
2022-09-27T14:00:59.813Z,55.40
2022-09-27T14:06:08.442Z,54.17
2022-09-27T14:11:15.493Z,53.72
2022-09-27T14:16:18.127Z,52.13
2022-09-27T14:21:23.966Z,50.73
2022-09-27T14:26:43.919Z,50.86
2022-09-27T14:31:42.913Z,50.19
2022-09-27T14:37:17.697Z,50.83
2022-09-27T14:42:33.032Z,50.56
2022-09-27T14:47:31.986Z,51.15
2022-09-27T14:52:33.270Z,52.05
2022-09-27T14:57:35.460Z,53.21
2022-09-27T15:02:34.628Z,53.25
2022-09-27T15:07:33.468Z,53.33
2022-09-27T15:12:35.712Z,53.80
2022-09-27T15:17:43.549Z,54.73
2022-09-27T15:22:45.035Z,55.48
2022-09-27T15:27:49.194Z,55.66
2022-09-27T15:32:53.544Z,55.89
2022-09-27T15:37:53.043Z,57.01
2022-09-27T15:42:58.649Z,57.81
2022-09-27T15:47:57.535Z,57.66
2022-09-27T15:52:57.672Z,58.02
2022-09-27T15:58:02.192Z,58.58
2022-09-27T16:03:01.102Z,59.09
2022-09-27T16:08:00.120Z,59.18
2022-09-27T16:13:00.262Z,56.64
2022-09-27T16:17:58.984Z,55.99
2022-09-27T16:22:58.090Z,57.42
2022-09-27T16:28:00.441Z,58.72
2022-09-27T16:32:59.684Z,59.94
2022-09-27T16:37:59.030Z,61.85
2022-09-27T16:42:59.306Z,62.63
2022-09-27T16:47:58.027Z,63.92
2022-09-27T16:52:57.047Z,62.69
2022-09-27T16:57:58.635Z,62.75
2022-09-27T17:02:58.721Z,62.19
2022-09-27T17:07:57.630Z,62.46
2022-09-27T17:12:57.331Z,63.29
2022-09-27T17:17:59.930Z,63.62
2022-09-27T17:22:59.067Z,65.48
2022-09-27T17:27:58.434Z,66.14
2022-09-27T17:32:58.204Z,66.03
2022-09-27T17:37:58.338Z,66.29
2022-09-27T17:42:57.244Z,67.47
2022-09-27T17:48:13.719Z,69.66
2022-09-27T17:53:14.003Z,70.63
2022-09-27T17:58:12.758Z,69.64
2022-09-27T18:03:11.583Z,68.19
2022-09-27T18:08:10.482Z,67.33
2022-09-27T18:13:12.964Z,67.17
2022-09-27T18:18:14.083Z,68.12
2022-09-27T18:23:12.894Z,66.99
2022-09-27T18:28:14.861Z,68.73
2022-09-27T18:33:15.746Z,68.88
2022-09-27T18:38:17.165Z,67.87
2022-09-27T18:43:18.615Z,67.64
2022-09-27T18:48:17.459Z,67.03
2022-09-27T18:53:16.160Z,66.88
2022-09-27T18:58:16.518Z,66.72
2022-09-27T19:03:17.214Z,66.28
2022-09-27T19:08:18.141Z,65.87
2022-09-27T19:13:16.964Z,68.24
2022-09-27T19:18:17.127Z,68.36
2022-09-27T19:23:15.874Z,67.31
2022-09-27T19:28:14.650Z,67.64
2022-09-27T19:33:15.450Z,68.55
2022-09-27T19:38:15.662Z,68.19
2022-09-27T19:43:14.337Z,68.26
2022-09-27T19:48:13.034Z,67.90
2022-09-27T19:53:12.118Z,74.95
2022-09-27T19:58:12.318Z,72.08
2022-09-27T20:03:11.021Z,71.34
2022-09-27T20:08:09.857Z,68.86
2022-09-27T20:13:08.581Z,66.70
2022-09-27T20:18:10.911Z,67.18
2022-09-27T20:23:09.658Z,67.40
2022-09-27T20:28:08.827Z,66.75
2022-09-27T20:33:26.366Z,66.64
2022-09-27T20:38:25.117Z,66.09
2022-09-27T20:43:26.519Z,65.73
2022-09-27T20:48:26.635Z,65.70
2022-09-27T20:53:26.932Z,64.93
2022-09-27T20:58:26.239Z,64.70
2022-09-27T21:03:26.507Z,64.82
2022-09-27T21:08:25.654Z,65.89
2022-09-27T21:13:24.401Z,64.92
2022-09-27T21:18:23.113Z,64.34
2022-09-27T21:23:23.334Z,64.34
2022-09-27T21:28:22.061Z,65.20
2022-09-27T21:33:20.906Z,65.14
2022-09-27T21:38:19.614Z,66.73
2022-09-27T21:43:19.751Z,66.22
2022-09-27T21:48:18.450Z,66.14
2022-09-27T21:53:17.350Z,66.00
2022-09-27T21:58:16.204Z,67.32
2022-09-27T22:03:16.412Z,68.79
2022-09-27T22:08:15.230Z,69.17
2022-09-27T22:13:14.191Z,70.30
2022-09-27T22:18:12.914Z,72.63
2022-09-27T22:23:13.492Z,72.53
2022-09-27T22:28:12.225Z,73.09
2022-09-27T22:33:10.977Z,74.68
2022-09-27T22:38:09.684Z,75.38
2022-09-27T22:43:09.983Z,77.69
2022-09-27T22:48:08.762Z,77.28
2022-09-27T22:53:08.043Z,77.00
2022-09-27T22:58:06.908Z,76.81
2022-09-27T23:03:07.082Z,76.37
2022-09-27T23:08:06.105Z,76.69
2022-09-27T23:13:05.261Z,76.47
2022-09-27T23:18:04.032Z,77.32
2022-09-27T23:23:04.128Z,77.22
2022-09-27T23:28:03.037Z,76.47
2022-09-27T23:33:01.869Z,76.26
2022-09-27T23:38:01.448Z,77.03
2022-09-27T23:43:01.650Z,76.74
2022-09-27T23:48:00.370Z,77.04
2022-09-27T23:52:59.604Z,77.49
2022-09-27T23:57:58.324Z,77.03
